Reynoldsville, Pennsylvania
Current Conditions -  °F | °C
As of 7:10 PM on Monday 22 Dec 2014 (Local Time) from KDUJ Reporting Station
Haze Haze  
Wind Chill: 20°   Ceiling: 1500
Heat Index: 30°   Visibility: 6mi
Dew Point: 25°   Wind: 13mph
Humidity: 82%   Direction: 110°ESE
Pressure: 30.03"   Gusts: 20mph
Location:  41.1°N, 78.89°W
Report Text: KDUJ 230010Z AUTO 11011G17KT 6SM HZ BKN015 OVC047 M01/M04 A3003 RMK AO2 T10111039
Loading
Personal Weather Stations






























Interactive Weather Map New forecast layout! Learn more

10-Day Weather Forecast

Advertisements
Track Severe Weather on mobile